createdAt,value
2022-10-17T00:00:48.154Z,101902.59
2022-10-17T00:03:16.534Z,101902.94
2022-10-17T00:05:46.464Z,101899.88
2022-10-17T00:08:16.293Z,101904.75
2022-10-17T00:10:44.161Z,101916.94
2022-10-17T00:13:12.928Z,101921.88
2022-10-17T00:15:44.876Z,101926.00
2022-10-17T00:18:12.945Z,101937.34
2022-10-17T00:20:40.751Z,101944.94
2022-10-17T00:23:08.569Z,101949.84
2022-10-17T00:25:37.030Z,101952.97
2022-10-17T00:28:05.006Z,101946.44
2022-10-17T00:30:32.891Z,101952.00
2022-10-17T00:33:02.033Z,101942.63
2022-10-17T00:35:29.866Z,101943.22
2022-10-17T00:37:57.800Z,101948.50
2022-10-17T00:40:26.253Z,101943.91
2022-10-17T00:42:54.040Z,101943.63
2022-10-17T00:45:24.772Z,101932.31
2022-10-17T00:47:57.061Z,101930.75
2022-10-17T00:50:27.040Z,101942.53
2022-10-17T00:52:57.814Z,101949.34
2022-10-17T00:55:29.504Z,101946.50
2022-10-17T00:57:58.271Z,101940.44
2022-10-17T01:00:26.265Z,101942.16
2022-10-17T01:02:54.119Z,101952.97
2022-10-17T01:05:22.220Z,101949.06
2022-10-17T01:07:54.019Z,101953.91
2022-10-17T01:13:08.667Z,101965.06
2022-10-17T01:15:49.228Z,101973.69
2022-10-17T01:18:27.309Z,101963.75
2022-10-17T01:21:10.020Z,101969.44
2022-10-17T01:24:02.927Z,101962.81
2022-10-17T01:26:46.294Z,101955.81
2022-10-17T01:29:43.137Z,101949.84
2022-10-17T01:32:17.320Z,101953.78
2022-10-17T01:34:56.010Z,101956.91
2022-10-17T01:37:30.434Z,101953.00
2022-10-17T01:40:10.648Z,101949.13
2022-10-17T01:42:45.269Z,101951.75
2022-10-17T01:45:17.520Z,101946.19
2022-10-17T01:47:51.904Z,101939.78
2022-10-17T01:50:25.056Z,101945.72
2022-10-17T01:52:56.701Z,101932.75
2022-10-17T01:55:29.592Z,101933.53
2022-10-17T01:58:01.718Z,101924.59
2022-10-17T02:00:31.497Z,101914.63
2022-10-17T02:03:04.862Z,101918.34
2022-10-17T02:05:37.762Z,101917.22
2022-10-17T02:08:06.249Z,101917.84
2022-10-17T02:10:40.471Z,101913.09
2022-10-17T02:13:15.394Z,101904.41
2022-10-17T02:16:00.460Z,101906.13
2022-10-17T02:18:48.596Z,101900.44
2022-10-17T02:21:21.676Z,101897.75
2022-10-17T02:23:57.319Z,101898.81
2022-10-17T02:26:31.924Z,101907.34
2022-10-17T02:29:07.538Z,101902.97
2022-10-17T02:31:41.646Z,101902.00
2022-10-17T02:34:18.404Z,101893.06
2022-10-17T02:36:51.825Z,101889.44
2022-10-17T02:39:21.769Z,101878.81
2022-10-17T02:41:52.073Z,101883.56
2022-10-17T02:44:21.473Z,101882.94
2022-10-17T02:46:56.110Z,101887.06
2022-10-17T02:49:29.453Z,101883.72
2022-10-17T02:52:03.973Z,101879.59
2022-10-17T02:54:38.218Z,101867.28
2022-10-17T02:57:11.765Z,101867.28
2022-10-17T02:59:42.199Z,101863.94
2022-10-17T03:02:10.118Z,101855.50
2022-10-17T03:04:39.359Z,101862.97
2022-10-17T03:07:07.144Z,101851.84
2022-10-17T03:09:34.924Z,101842.16
2022-10-17T03:12:02.854Z,101845.81
2022-10-17T03:14:30.585Z,101857.13
2022-10-17T03:16:58.363Z,101853.78
2022-10-17T03:19:26.235Z,101852.06
2022-10-17T03:21:55.510Z,101841.97
2022-10-17T03:24:23.535Z,101848.41
2022-10-17T03:26:51.510Z,101848.22
2022-10-17T03:29:19.378Z,101839.28
2022-10-17T03:31:47.182Z,101844.22
2022-10-17T03:34:16.786Z,101848.72
2022-10-17T03:36:44.557Z,101837.97
2022-10-17T03:39:14.065Z,101831.00
2022-10-17T03:41:41.939Z,101842.50
2022-10-17T03:44:09.713Z,101842.50
2022-10-17T03:46:37.498Z,101847.78
2022-10-17T03:49:05.389Z,101839.06
2022-10-17T03:51:34.474Z,101835.50
2022-10-17T03:54:02.507Z,101841.84
2022-10-17T03:56:32.008Z,101839.41
2022-10-17T03:58:59.809Z,101833.34
2022-10-17T04:01:27.770Z,101836.50
2022-10-17T04:03:57.775Z,101837.56
2022-10-17T04:06:25.548Z,101837.56
2022-10-17T04:08:53.289Z,101834.41
2022-10-17T04:11:22.332Z,101834.19
2022-10-17T04:13:55.842Z,101832.75
2022-10-17T04:16:24.651Z,101832.00
2022-10-17T04:18:55.004Z,101838.03
2022-10-17T04:21:24.684Z,101839.97
2022-10-17T04:23:54.780Z,101833.63
2022-10-17T04:26:23.049Z,101834.31
2022-10-17T04:28:51.506Z,101836.50
2022-10-17T04:31:20.747Z,101832.44
2022-10-17T04:33:49.897Z,101838.44
2022-10-17T04:36:19.262Z,101836.78
2022-10-17T04:38:47.061Z,101832.97
2022-10-17T04:41:17.065Z,101823.16
2022-10-17T04:43:48.472Z,101823.16
2022-10-17T04:46:20.340Z,101820.69
2022-10-17T04:48:48.228Z,101820.97
2022-10-17T04:51:20.562Z,101819.59
2022-10-17T04:53:51.111Z,101820.66
2022-10-17T04:56:20.445Z,101810.09
2022-10-17T04:58:49.161Z,101813.00
2022-10-17T05:01:20.243Z,101809.13
2022-10-17T05:03:49.744Z,101812.97
2022-10-17T05:06:19.117Z,101814.00
2022-10-17T05:08:47.794Z,101803.19
2022-10-17T05:11:18.599Z,101808.75
2022-10-17T05:13:50.421Z,101818.59
2022-10-17T05:16:18.318Z,101811.41
2022-10-17T05:18:50.614Z,101807.09
2022-10-17T05:21:22.700Z,101807.19
2022-10-17T05:23:50.670Z,101797.13
2022-10-17T05:26:19.661Z,101790.88
2022-10-17T05:28:47.694Z,101798.06
2022-10-17T05:31:16.213Z,101801.59
2022-10-17T05:33:44.254Z,101795.81
2022-10-17T05:36:12.080Z,101800.84
2022-10-17T05:38:41.361Z,101801.50
2022-10-17T05:41:09.327Z,101801.50
2022-10-17T05:43:37.366Z,101800.16
2022-10-17T05:46:06.598Z,101797.56
2022-10-17T05:48:35.220Z,101808.47
2022-10-17T05:51:07.979Z,101802.50
2022-10-17T05:53:38.126Z,101801.28
2022-10-17T05:56:09.714Z,101800.94
2022-10-17T05:58:49.711Z,101802.63
2022-10-17T06:01:18.666Z,101802.56
2022-10-17T06:03:46.505Z,101800.06
2022-10-17T06:06:15.618Z,101806.78
2022-10-17T06:08:44.033Z,101801.50
2022-10-17T06:11:13.941Z,101806.78
2022-10-17T06:13:42.030Z,101806.63
2022-10-17T06:16:10.486Z,101805.63
2022-10-17T06:18:38.349Z,101798.72
2022-10-17T06:21:09.356Z,101800.13
2022-10-17T06:23:37.668Z,101804.50
2022-10-17T06:26:09.100Z,101800.78
2022-10-17T06:28:38.808Z,101800.03
2022-10-17T06:31:08.160Z,101805.19
2022-10-17T06:33:36.252Z,101795.69
2022-10-17T06:36:05.989Z,101795.22
2022-10-17T06:38:35.157Z,101802.13
2022-10-17T06:41:08.526Z,101797.16
2022-10-17T06:43:38.473Z,101789.88
2022-10-17T06:46:07.241Z,101795.75
2022-10-17T06:48:35.324Z,101798.13
2022-10-17T06:51:04.869Z,101795.16
2022-10-17T06:53:35.810Z,101796.41
2022-10-17T06:56:04.824Z,101804.09
2022-10-17T06:58:34.545Z,101803.50
2022-10-17T07:01:06.465Z,101795.19
2022-10-17T07:03:34.959Z,101799.81
2022-10-17T07:06:03.386Z,101798.16
2022-10-17T07:08:31.405Z,101805.91
2022-10-17T07:11:00.253Z,101808.28
2022-10-17T07:13:28.443Z,101792.25
2022-10-17T07:16:00.645Z,101792.69
2022-10-17T07:18:30.046Z,101798.72
2022-10-17T07:20:57.837Z,101801.34
2022-10-17T07:23:25.928Z,101815.09
2022-10-17T07:25:53.836Z,101808.91
2022-10-17T07:28:21.641Z,101812.41
2022-10-17T07:30:52.144Z,101823.41
2022-10-17T07:33:22.506Z,101833.97
2022-10-17T07:35:52.900Z,101834.19
2022-10-17T07:38:20.808Z,101814.50
2022-10-17T07:40:55.729Z,101815.56
2022-10-17T07:43:23.958Z,101815.56
2022-10-17T07:45:52.539Z,101816.13
2022-10-17T07:48:22.121Z,101823.00
2022-10-17T07:50:52.103Z,101820.00
2022-10-17T07:53:20.339Z,101811.91
2022-10-17T07:55:49.625Z,101819.34
2022-10-17T07:58:17.449Z,101842.44
2022-10-17T08:00:48.266Z,101833.56
2022-10-17T08:03:16.491Z,101832.28
2022-10-17T08:05:44.255Z,101825.75
2022-10-17T08:08:13.396Z,101825.44
2022-10-17T08:10:41.338Z,101824.75
2022-10-17T08:13:09.339Z,101815.03
2022-10-17T08:15:38.839Z,101810.91
2022-10-17T08:18:06.769Z,101812.31
2022-10-17T08:20:34.548Z,101817.50
2022-10-17T08:23:02.295Z,101811.16
2022-10-17T08:25:31.507Z,101817.44
2022-10-17T08:27:59.571Z,101804.50
2022-10-17T08:30:27.381Z,101793.72
2022-10-17T08:32:56.471Z,101797.41
2022-10-17T08:35:24.244Z,101794.84
2022-10-17T08:37:52.115Z,101791.63
2022-10-17T08:40:25.377Z,101785.41
2022-10-17T08:43:14.178Z,101800.25
2022-10-17T08:45:48.606Z,101788.94
2022-10-17T08:48:19.813Z,101784.19
2022-10-17T08:50:52.933Z,101783.66
2022-10-17T08:53:25.818Z,101786.00
2022-10-17T08:55:55.797Z,101787.84
2022-10-17T08:58:28.879Z,101785.41
2022-10-17T09:01:10.511Z,101781.25
2022-10-17T09:03:54.090Z,101787.41
2022-10-17T09:06:29.944Z,101801.03
2022-10-17T09:09:12.526Z,101807.13
2022-10-17T09:12:14.594Z,101807.81
2022-10-17T09:14:59.957Z,101813.31
2022-10-17T09:17:37.814Z,101810.34
2022-10-17T09:20:11.935Z,101812.59
2022-10-17T09:22:46.143Z,101795.69
2022-10-17T09:25:17.581Z,101787.59
2022-10-17T09:27:49.857Z,101794.47
2022-10-17T09:30:44.140Z,101797.63
2022-10-17T09:33:28.170Z,101802.84
2022-10-17T09:36:05.517Z,101799.06
2022-10-17T09:38:40.043Z,101810.44
2022-10-17T09:41:39.682Z,101807.56
2022-10-17T09:44:16.396Z,101808.97
2022-10-17T09:46:57.562Z,101798.63
2022-10-17T09:49:31.606Z,101799.56
2022-10-17T09:51:59.539Z,101791.63
2022-10-17T09:54:35.259Z,101781.69
2022-10-17T09:57:05.547Z,101781.19
2022-10-17T09:59:35.306Z,101789.19
2022-10-17T10:02:16.914Z,101786.19
2022-10-17T10:05:04.089Z,101783.38
2022-10-17T10:07:34.494Z,101788.72
2022-10-17T10:10:03.985Z,101800.31
2022-10-17T10:12:33.812Z,101798.63
2022-10-17T10:15:02.298Z,101799.84
2022-10-17T10:17:41.865Z,101789.81
2022-10-17T10:20:32.259Z,101801.97
2022-10-17T10:23:08.991Z,101805.13
2022-10-17T10:25:37.341Z,101807.00
2022-10-17T10:28:11.766Z,101802.00
2022-10-17T10:30:40.187Z,101808.16
2022-10-17T10:33:12.855Z,101806.19
2022-10-17T10:35:40.865Z,101808.34
2022-10-17T10:38:12.568Z,101803.75
2022-10-17T10:40:47.394Z,101810.06
2022-10-17T10:43:25.486Z,101806.19
2022-10-17T10:45:53.941Z,101800.03
2022-10-17T10:48:24.899Z,101802.63
2022-10-17T10:50:56.835Z,101798.63
2022-10-17T10:53:42.428Z,101803.66
2022-10-17T10:56:14.974Z,101802.75
2022-10-17T10:58:51.844Z,101807.47
2022-10-17T11:01:26.456Z,101804.06
2022-10-17T11:04:21.183Z,101817.34
2022-10-17T11:06:53.106Z,101818.78
2022-10-17T11:09:33.018Z,101825.09
2022-10-17T11:12:06.348Z,101823.22
2022-10-17T11:14:41.702Z,101809.63
2022-10-17T11:17:18.895Z,101810.91
2022-10-17T11:19:57.364Z,101815.19
2022-10-17T11:22:29.535Z,101810.31
2022-10-17T11:25:01.753Z,101827.34
2022-10-17T11:27:31.119Z,101820.06
2022-10-17T11:29:59.636Z,101826.97
2022-10-17T11:32:32.855Z,101827.41
2022-10-17T11:35:06.624Z,101829.09
2022-10-17T11:37:40.823Z,101828.53
2022-10-17T11:40:19.331Z,101823.97
2022-10-17T11:42:56.609Z,101822.53
2022-10-17T11:45:28.269Z,101818.63
2022-10-17T11:48:02.704Z,101803.75
2022-10-17T11:53:26.183Z,101801.91
2022-10-17T11:55:55.625Z,101806.63
2022-10-17T11:58:37.627Z,101805.66
2022-10-17T12:01:15.173Z,101798.31
2022-10-17T12:03:53.319Z,101795.19
2022-10-17T12:06:39.340Z,101828.78
2022-10-17T12:09:14.145Z,101848.66
2022-10-17T12:11:50.851Z,101848.47
2022-10-17T12:14:41.133Z,101837.03
2022-10-17T12:17:26.971Z,101852.47
2022-10-17T12:19:55.243Z,101859.03
2022-10-17T12:22:28.256Z,101862.31
2022-10-17T12:24:59.504Z,101874.16
2022-10-17T12:27:46.238Z,101879.16
2022-10-17T12:30:24.473Z,101882.53
2022-10-17T12:33:22.138Z,101866.94
2022-10-17T12:35:52.305Z,101863.84
2022-10-17T12:38:29.101Z,101854.81
2022-10-17T12:41:04.400Z,101850.84
2022-10-17T12:43:56.007Z,101840.75
2022-10-17T12:46:51.078Z,101858.03
2022-10-17T12:49:51.117Z,101864.72
2022-10-17T12:52:54.030Z,101869.41
2022-10-17T12:55:27.067Z,101874.84
2022-10-17T12:58:01.197Z,101882.63
2022-10-17T13:00:35.924Z,101878.75
2022-10-17T13:03:07.653Z,101885.69
2022-10-17T13:05:38.392Z,101885.03
2022-10-17T13:08:09.082Z,101887.16
2022-10-17T13:10:43.169Z,101890.47
2022-10-17T13:13:19.353Z,101898.00
2022-10-17T13:15:48.216Z,101920.69
2022-10-17T13:18:22.057Z,101963.16
2022-10-17T13:20:57.450Z,101965.50
2022-10-17T13:23:26.267Z,101934.63
2022-10-17T13:26:16.186Z,101924.69
2022-10-17T13:28:44.572Z,101904.28
2022-10-17T13:31:30.930Z,101895.00
2022-10-17T13:34:01.550Z,101901.41
2022-10-17T13:36:31.234Z,101909.59
2022-10-17T13:39:00.608Z,101918.00
2022-10-17T13:41:36.295Z,101924.28
2022-10-17T13:44:10.493Z,101912.69
2022-10-17T13:46:41.063Z,101928.84
2022-10-17T13:49:25.711Z,101942.63
2022-10-17T13:51:57.139Z,101954.06
2022-10-17T13:54:36.908Z,101956.94
2022-10-17T13:57:07.977Z,101964.44
2022-10-17T13:59:40.204Z,101966.63
2022-10-17T14:02:14.685Z,101965.63
2022-10-17T14:05:15.199Z,101960.03
2022-10-17T14:08:05.698Z,101939.44
2022-10-17T14:10:28.855Z,101935.88
2022-10-17T14:12:59.165Z,101945.81
2022-10-17T14:15:29.342Z,101938.97
2022-10-17T14:17:59.440Z,101929.25
2022-10-17T14:23:35.550Z,101908.69
2022-10-17T14:26:15.908Z,101905.63
2022-10-17T14:28:48.941Z,101907.09
2022-10-17T14:31:31.147Z,101907.94
2022-10-17T14:33:59.171Z,101916.06
2022-10-17T14:36:35.996Z,101917.94
2022-10-17T14:39:04.839Z,101924.56
2022-10-17T14:41:42.872Z,101939.72
2022-10-17T14:44:21.513Z,101939.81
2022-10-17T14:46:53.456Z,101944.59
2022-10-17T14:49:27.095Z,101956.44
2022-10-17T14:52:24.658Z,101963.69
2022-10-17T14:54:52.496Z,101983.50
2022-10-17T14:57:24.831Z,101996.88
2022-10-17T14:59:55.597Z,101994.16
2022-10-17T15:02:24.287Z,101997.22
2022-10-17T15:04:52.144Z,101997.13
2022-10-17T15:07:21.210Z,101994.78
2022-10-17T15:09:51.582Z,101999.31
2022-10-17T15:12:21.558Z,102006.94
2022-10-17T15:14:49.605Z,102007.56
2022-10-17T15:17:20.902Z,102008.91
2022-10-17T15:19:50.641Z,102013.44
2022-10-17T15:22:19.222Z,102023.00
2022-10-17T15:24:47.251Z,102023.88
2022-10-17T15:27:16.949Z,102025.72
2022-10-17T15:29:45.200Z,102031.75
2022-10-17T15:32:13.170Z,102033.72
2022-10-17T15:34:43.114Z,102026.47
2022-10-17T15:37:19.099Z,102034.56
2022-10-17T15:39:52.965Z,102042.19
2022-10-17T15:42:21.780Z,102045.88
2022-10-17T15:44:50.331Z,102044.50
2022-10-17T15:47:29.626Z,102042.53
2022-10-17T15:49:59.045Z,102045.00
2022-10-17T15:52:27.261Z,102049.28
2022-10-17T15:54:57.391Z,102051.22
2022-10-17T15:57:29.484Z,102050.41
2022-10-17T16:00:00.009Z,102055.06
2022-10-17T16:02:28.292Z,102055.38
2022-10-17T16:04:56.081Z,102050.47
2022-10-17T16:07:25.382Z,102058.47
2022-10-17T16:09:53.218Z,102058.78
2022-10-17T16:12:27.635Z,102051.84
2022-10-17T16:14:55.561Z,102062.47
2022-10-17T16:17:23.441Z,102058.59
2022-10-17T16:19:51.305Z,102065.50
2022-10-17T16:22:27.661Z,102059.66
2022-10-17T16:24:59.270Z,102064.09
2022-10-17T16:27:27.339Z,102065.94
2022-10-17T16:29:55.133Z,102073.06
2022-10-17T16:32:22.904Z,102065.16
2022-10-17T16:34:50.643Z,102071.00
2022-10-17T16:37:18.359Z,102069.31
2022-10-17T16:39:52.545Z,102070.16
2022-10-17T16:42:20.825Z,102078.06
2022-10-17T16:44:49.024Z,102079.47
2022-10-17T16:47:17.402Z,102078.59
2022-10-17T16:49:45.510Z,102084.41
2022-10-17T16:52:13.450Z,102083.47
2022-10-17T16:54:41.460Z,102092.31
2022-10-17T16:57:10.579Z,102090.81
2022-10-17T16:59:38.323Z,102089.94
2022-10-17T17:02:06.205Z,102101.00
2022-10-17T17:04:34.016Z,102096.34
2022-10-17T17:07:01.760Z,102096.78
2022-10-17T17:09:29.691Z,102102.53
2022-10-17T17:11:57.416Z,102110.50
2022-10-17T17:14:27.077Z,102115.03
2022-10-17T17:16:54.948Z,102108.31
2022-10-17T17:19:22.709Z,102115.59
2022-10-17T17:21:51.175Z,102109.56
2022-10-17T17:24:21.109Z,102119.50
2022-10-17T17:26:52.216Z,102121.75
2022-10-17T17:29:20.029Z,102124.78
2022-10-17T17:31:49.746Z,102110.69
2022-10-17T17:34:18.513Z,102123.47
2022-10-17T17:36:46.623Z,102123.47
2022-10-17T17:39:15.783Z,102120.75
2022-10-17T17:41:44.359Z,102127.03
2022-10-17T17:44:16.458Z,102131.47
2022-10-17T17:46:45.366Z,102127.91
2022-10-17T17:49:15.163Z,102134.19
2022-10-17T17:51:46.333Z,102143.25
2022-10-17T17:54:14.393Z,102143.50
2022-10-17T17:56:42.142Z,102141.28
2022-10-17T17:59:13.506Z,102155.44
2022-10-17T18:01:41.599Z,102150.78
2022-10-17T18:04:10.097Z,102149.91
2022-10-17T18:06:40.106Z,102151.56
2022-10-17T18:09:10.092Z,102146.06
2022-10-17T18:11:38.608Z,102145.31
2022-10-17T18:14:08.568Z,102139.59
2022-10-17T18:16:37.821Z,102143.50
2022-10-17T18:19:07.371Z,102136.22
2022-10-17T18:21:35.914Z,102136.47
2022-10-17T18:24:05.820Z,102146.69
2022-10-17T18:26:34.215Z,102147.91
2022-10-17T18:29:02.105Z,102147.69
2022-10-17T18:31:35.317Z,102141.53
2022-10-17T18:34:04.602Z,102143.59
2022-10-17T18:36:33.909Z,102153.66
2022-10-17T18:39:02.905Z,102156.88
2022-10-17T18:41:33.227Z,102157.22
2022-10-17T18:44:01.153Z,102163.16
2022-10-17T18:46:31.702Z,102169.53
2022-10-17T18:48:59.712Z,102172.03
2022-10-17T18:51:27.993Z,102167.25
2022-10-17T18:53:58.629Z,102177.00
2022-10-17T18:56:27.520Z,102175.06
2022-10-17T18:58:57.634Z,102183.28
2022-10-17T19:01:28.489Z,102178.75
2022-10-17T19:03:58.008Z,102187.16
2022-10-17T19:06:31.882Z,102183.72
2022-10-17T19:09:03.109Z,102190.75
2022-10-17T19:11:32.605Z,102197.00
2022-10-17T19:14:04.564Z,102199.06
2022-10-17T19:16:34.577Z,102191.59
2022-10-17T19:19:04.959Z,102183.84
2022-10-17T19:21:33.091Z,102193.75
2022-10-17T19:24:02.753Z,102198.09
2022-10-17T19:26:32.382Z,102199.94
2022-10-17T19:29:02.317Z,102207.28
2022-10-17T19:31:32.085Z,102206.00
2022-10-17T19:34:00.847Z,102201.78
2022-10-17T19:36:33.527Z,102198.78
2022-10-17T19:39:02.575Z,102201.38
2022-10-17T19:41:30.626Z,102207.53
2022-10-17T19:43:58.493Z,102212.84
2022-10-17T19:46:30.452Z,102210.59
2022-10-17T19:48:58.458Z,102216.19
2022-10-17T19:51:27.237Z,102214.13
2022-10-17T19:53:56.692Z,102220.53
2022-10-17T19:56:25.914Z,102230.66
2022-10-17T19:58:55.626Z,102237.13
2022-10-17T20:01:25.670Z,102239.25
2022-10-17T20:03:55.471Z,102245.63
2022-10-17T20:06:23.543Z,102255.97
2022-10-17T20:08:51.931Z,102255.53
2022-10-17T20:11:22.291Z,102264.59
2022-10-17T20:13:50.513Z,102265.41
2022-10-17T20:16:22.289Z,102272.97
2022-10-17T20:18:50.877Z,102271.25
2022-10-17T20:21:23.430Z,102275.22
2022-10-17T20:23:51.889Z,102281.88
2022-10-17T20:26:37.449Z,102281.13
2022-10-17T20:29:11.100Z,102284.22
2022-10-17T20:31:39.734Z,102286.16
2022-10-17T20:34:07.565Z,102291.75
2022-10-17T20:36:37.506Z,102297.25
2022-10-17T20:39:06.296Z,102298.19
2022-10-17T20:41:34.651Z,102309.88
2022-10-17T20:44:02.583Z,102305.53
2022-10-17T20:46:44.411Z,102311.03
2022-10-17T20:49:19.166Z,102321.03
2022-10-17T20:51:48.464Z,102325.09
2022-10-17T20:54:16.273Z,102325.31
2022-10-17T20:56:44.136Z,102339.56
2022-10-17T20:59:16.316Z,102344.84
2022-10-17T21:01:45.367Z,102350.25
2022-10-17T21:07:03.328Z,102344.66
2022-10-17T21:09:31.360Z,102347.34
2022-10-17T21:11:59.218Z,102341.38
2022-10-17T21:14:27.076Z,102349.38
2022-10-17T21:16:54.831Z,102354.00
2022-10-17T21:19:22.932Z,102353.13
2022-10-17T21:21:51.526Z,102349.47
2022-10-17T21:24:20.912Z,102347.06
2022-10-17T21:26:55.691Z,102347.06
2022-10-17T21:29:24.381Z,102356.03
2022-10-17T21:31:52.539Z,102350.53
2022-10-17T21:34:23.980Z,102350.75
2022-10-17T21:36:52.421Z,102344.69
2022-10-17T21:39:24.276Z,102347.47
2022-10-17T21:41:52.761Z,102351.13
2022-10-17T21:44:23.160Z,102354.78
2022-10-17T21:46:51.829Z,102351.91
2022-10-17T21:49:26.629Z,102354.97
2022-10-17T21:51:54.934Z,102356.78
2022-10-17T21:54:24.545Z,102360.63
2022-10-17T21:56:53.252Z,102359.69
2022-10-17T21:59:21.476Z,102361.50
2022-10-17T22:01:49.367Z,102362.25
2022-10-17T22:04:18.704Z,102363.03
2022-10-17T22:06:51.182Z,102357.66
2022-10-17T22:09:21.147Z,102353.13
2022-10-17T22:11:52.985Z,102361.78
2022-10-17T22:14:22.428Z,102359.97
2022-10-17T22:16:50.864Z,102362.84
2022-10-17T22:19:21.011Z,102366.13
2022-10-17T22:21:49.426Z,102369.97
2022-10-17T22:26:53.916Z,102367.06
2022-10-17T22:29:22.015Z,102369.19
2022-10-17T22:31:49.911Z,102370.66
2022-10-17T22:34:18.759Z,102362.66
2022-10-17T22:36:47.765Z,102358.66
2022-10-17T22:39:15.726Z,102360.47
2022-10-17T22:41:43.655Z,102365.56
2022-10-17T22:44:12.955Z,102355.75
2022-10-17T22:46:40.802Z,102367.88
2022-10-17T22:49:08.783Z,102367.03
2022-10-17T22:51:36.533Z,102356.72
2022-10-17T22:54:04.358Z,102362.00
2022-10-17T22:56:32.284Z,102375.38
2022-10-17T22:59:00.022Z,102370.00
2022-10-17T23:01:29.199Z,102378.09
2022-10-17T23:03:57.055Z,102366.34
2022-10-17T23:06:25.159Z,102373.66
2022-10-17T23:08:53.693Z,102369.31
2022-10-17T23:11:21.980Z,102377.63
2022-10-17T23:13:49.793Z,102380.22
2022-10-17T23:16:17.915Z,102381.09
2022-10-17T23:18:47.410Z,102375.88
2022-10-17T23:21:15.433Z,102383.94
2022-10-17T23:23:43.259Z,102383.00
2022-10-17T23:26:13.435Z,102381.81
2022-10-17T23:28:42.197Z,102381.09
2022-10-17T23:31:12.163Z,102385.28
2022-10-17T23:33:41.464Z,102403.13
2022-10-17T23:36:12.129Z,102387.03
2022-10-17T23:38:40.805Z,102385.28
2022-10-17T23:41:09.031Z,102385.69
2022-10-17T23:43:36.872Z,102385.84
2022-10-17T23:46:06.314Z,102387.00
2022-10-17T23:48:38.441Z,102382.09
2022-10-17T23:51:07.019Z,102379.78
2022-10-17T23:53:36.917Z,102384.97
2022-10-17T23:56:05.329Z,102394.81
2022-10-17T23:58:33.164Z,102395.75
